Time;durP1;ratioP1;P1;durP2;ratioP2;P2;SDS_P1;SDS_P2;PMS_P1;PMS_P2;Temp;Humidity;BMP_temperature;BMP_pressure;BME280_temperature;BME280_humidity;BME280_pressure;Samples;Min_cycle;Max_cycle;Signal;HPM_P1;HPM_P2
2022/11/05 00:10:21;;;;;;;23.17;16.13;;;;;;;7.69;100.00;100814.97;4942221;29;20415;-80
2022/11/05 00:18:18;;;;;;;31.50;19.23;;;;;;;7.38;100.00;100815.03;4942141;29;20169;-78
2022/11/05 00:20:45;;;;;;;26.90;18.65;;;;;;;7.29;100.00;100818.41;4943792;29;20098;-80
2022/11/05 00:25:57;;;;;;;27.95;18.85;;;;;;;7.14;100.00;100827.50;4912362;29;20131;-82
2022/11/05 00:28:24;;;;;;;30.67;21.40;;;;;;;7.12;100.00;100838.03;4943937;29;20435;-82
2022/11/05 00:30:50;;;;;;;30.17;21.33;;;;;;;7.10;100.00;100844.31;4944146;29;20052;-81
2022/11/05 00:33:19;;;;;;;28.85;20.63;;;;;;;7.02;100.00;100847.59;4944585;29;20102;-82
2022/11/05 00:35:45;;;;;;;30.40;22.13;;;;;;;6.98;100.00;100847.00;4944076;29;20071;-79
2022/11/05 00:38:12;;;;;;;30.98;21.80;;;;;;;6.88;100.00;100840.91;4945623;29;20082;-82
2022/11/05 00:40:38;;;;;;;31.35;22.85;;;;;;;6.83;100.00;100850.03;4944259;29;20090;-82
2022/11/05 00:45:49;;;;;;;41.30;25.15;;;;;;;6.80;100.00;100858.94;4951266;29;20058;-82
2022/11/05 00:51:02;;;;;;;40.28;26.00;;;;;;;6.84;100.00;100869.91;4950777;29;20071;-83
2022/11/05 00:53:28;;;;;;;38.83;27.05;;;;;;;6.89;100.00;100867.75;4947404;29;20052;-83
2022/11/05 00:55:55;;;;;;;45.92;26.98;;;;;;;6.92;100.00;100870.94;4948405;29;20111;-82
2022/11/05 00:58:23;;;;;;;45.08;27.30;;;;;;;6.93;100.00;100869.16;4948623;29;20051;-82
2022/11/05 01:00:51;;;;;;;45.17;26.38;;;;;;;6.97;100.00;100870.56;4950606;29;20091;-83
2022/11/05 01:03:20;;;;;;;39.47;27.13;;;;;;;6.95;100.00;100864.66;4950706;29;20047;-83
2022/11/05 01:05:47;;;;;;;43.97;27.60;;;;;;;6.92;100.00;100860.53;4950237;29;20050;-80
2022/11/05 01:08:17;;;;;;;44.75;26.95;;;;;;;6.94;100.00;100870.81;4947734;29;20082;-81
2022/11/05 01:10:45;;;;;;;41.20;26.20;;;;;;;6.88;100.00;100882.53;4943081;29;20491;-81
2022/11/05 01:13:13;;;;;;;34.50;24.63;;;;;;;6.85;100.00;100882.78;4941420;29;20130;-80
2022/11/05 01:15:40;;;;;;;38.22;25.42;;;;;;;6.80;100.00;100890.13;4941501;29;20086;-82
2022/11/05 01:18:07;;;;;;;37.83;24.13;;;;;;;6.76;100.00;100883.53;4941436;29;20079;-79
2022/11/05 01:20:33;;;;;;;37.35;24.08;;;;;;;6.72;100.00;100886.50;4942416;29;20083;-82
2022/11/05 01:23:00;;;;;;;36.17;23.10;;;;;;;6.65;100.00;100892.19;4974640;23;20134;-81
2022/11/05 01:25:28;;;;;;;32.25;22.33;;;;;;;6.55;100.00;100890.50;4964268;29;20054;-82
2022/11/05 01:27:55;;;;;;;34.95;22.77;;;;;;;6.46;100.00;100891.22;4967435;29;20157;-82
2022/11/05 01:30:21;;;;;;;32.53;22.23;;;;;;;6.41;100.00;100889.00;4961479;29;20067;-83
2022/11/05 01:32:48;;;;;;;33.58;23.02;;;;;;;6.48;100.00;100900.56;4946238;29;20056;-79
2022/11/05 01:35:17;;;;;;;33.13;21.63;;;;;;;6.45;100.00;100915.56;4941825;29;20056;-81
2022/11/05 01:37:44;;;;;;;30.33;20.77;;;;;;;6.41;100.00;100915.00;4943759;29;20087;-80
2022/11/05 01:40:13;;;;;;;31.55;22.05;;;;;;;6.38;100.00;100922.19;4946149;29;20091;-81
2022/11/05 01:42:41;;;;;;;27.30;20.35;;;;;;;6.34;100.00;100919.00;4962455;29;20090;-80
2022/11/05 01:45:14;;;;;;;28.20;20.30;;;;;;;6.26;100.00;100911.81;4958212;29;20134;-80
2022/11/05 01:47:50;;;;;;;36.35;21.25;;;;;;;6.20;100.00;100912.31;4938860;29;20607;-81
2022/11/05 01:50:30;;;;;;;32.22;21.35;;;;;;;6.20;100.00;100916.69;4939057;29;20131;-80
2022/11/05 01:53:01;;;;;;;33.25;21.40;;;;;;;6.17;100.00;100912.53;4948150;29;20130;-81
2022/11/05 01:55:33;;;;;;;34.80;21.30;;;;;;;6.12;100.00;100914.72;4957735;29;20078;-80
2022/11/05 01:58:05;;;;;;;31.65;21.30;;;;;;;6.06;100.00;100920.38;4958937;29;20116;-79
2022/11/05 02:00:32;;;;;;;31.10;21.25;;;;;;;5.98;100.00;100912.34;4959054;29;20070;-80
2022/11/05 02:02:59;;;;;;;32.58;21.90;;;;;;;5.95;100.00;100928.19;4959967;29;20090;-81
2022/11/05 02:05:26;;;;;;;32.00;21.50;;;;;;;5.90;100.00;100920.75;4962366;29;20063;-81
2022/11/05 02:07:53;;;;;;;31.77;21.55;;;;;;;5.84;100.00;100920.34;4960663;29;20047;-80
2022/11/05 02:10:21;;;;;;;28.73;20.70;;;;;;;5.77;100.00;100920.00;4960364;29;20051;-80
2022/11/05 02:12:48;;;;;;;29.88;21.08;;;;;;;5.75;100.00;100915.84;4958121;29;20050;-81
2022/11/05 02:15:21;;;;;;;37.03;22.13;;;;;;;5.73;100.00;100922.94;4959689;29;20135;-81
2022/11/05 02:17:57;;;;;;;29.75;20.40;;;;;;;5.78;100.00;100920.81;4958649;29;20051;-81
2022/11/05 02:20:33;;;;;;;33.38;20.75;;;;;;;5.86;100.00;100932.28;4958505;29;20054;-82
2022/11/05 02:23:39;;;;;;;34.83;21.52;;;;;;;5.89;100.00;100928.66;4958752;29;20146;-82
2022/11/05 02:26:44;;;;;;;32.63;21.42;;;;;;;6.02;100.00;100937.16;4958419;28;20048;-80
2022/11/05 02:29:41;;;;;;;30.77;21.30;;;;;;;6.13;100.00;100936.31;4962612;29;20075;-83
2022/11/05 02:32:16;;;;;;;31.15;19.90;;;;;;;6.23;100.00;100942.41;4962022;29;20414;-79
2022/11/05 02:34:54;;;;;;;25.77;19.35;;;;;;;6.32;100.00;100942.53;4969299;29;20078;-79
2022/11/05 02:37:31;;;;;;;29.13;19.85;;;;;;;6.37;100.00;100934.38;4967796;29;20146;-81
2022/11/05 02:40:05;;;;;;;27.40;18.33;;;;;;;6.36;100.00;100942.28;4966837;29;20051;-79
2022/11/05 02:42:40;;;;;;;28.70;19.35;;;;;;;6.35;100.00;100943.25;4969435;29;20171;-80
2022/11/05 02:45:19;;;;;;;29.35;18.77;;;;;;;6.31;100.00;100946.06;4974265;29;20047;-79
2022/11/05 02:47:51;;;;;;;30.15;19.05;;;;;;;6.29;100.00;100947.97;4954445;29;20051;-80
2022/11/05 02:50:24;;;;;;;25.30;18.02;;;;;;;6.33;100.00;100946.78;4949469;29;20522;-79
2022/11/05 02:52:55;;;;;;;;;;;;;;;6.39;100.00;100942.06;4963847;29;20106;-80
2022/11/05 02:55:27;;;;;;;26.33;17.90;;;;;;;6.41;100.00;100943.59;4962786;29;20052;-80
2022/11/05 02:57:54;;;;;;;24.95;17.08;;;;;;;6.51;100.00;100947.09;4962057;29;20083;-80
2022/11/05 03:00:54;;;;;;;23.17;17.67;;;;;;;6.55;100.00;100948.53;4961816;29;20199;-81
2022/11/05 03:03:30;;;;;;;28.55;17.90;;;;;;;6.64;100.00;100949.53;4939452;29;20054;-81
2022/11/05 03:06:33;;;;;;;23.80;16.23;;;;;;;6.82;100.00;100945.47;4939580;29;20111;-79
2022/11/05 03:09:35;;;;;;;25.73;16.63;;;;;;;6.92;100.00;100946.38;4947487;29;20143;-81
2022/11/05 03:12:11;;;;;;;30.85;16.98;;;;;;;6.84;100.00;100946.16;4961171;29;20130;-81
2022/11/05 03:14:43;;;;;;;22.80;15.40;;;;;;;6.88;100.00;100942.38;4963277;29;20055;-81
2022/11/05 03:17:23;;;;;;;22.52;14.82;;;;;;;6.80;100.00;100947.34;4961946;29;20430;-81
2022/11/05 03:19:57;;;;;;;24.63;15.70;;;;;;;6.67;100.00;100941.47;4961903;29;20090;-79
2022/11/05 03:22:29;;;;;;;25.60;17.10;;;;;;;6.54;100.00;100938.25;4963465;29;20433;-80
2022/11/05 03:25:00;;;;;;;23.38;16.45;;;;;;;6.44;100.00;100935.53;4963641;29;20091;-81
2022/11/05 03:27:30;;;;;;;24.63;16.58;;;;;;;6.45;100.00;100936.38;4961271;29;20083;-81
2022/11/05 03:30:01;;;;;;;22.75;17.45;;;;;;;6.41;100.00;100940.97;4960142;29;20459;-81
2022/11/05 03:32:33;;;;;;;25.98;17.10;;;;;;;6.27;100.00;100939.47;4960119;29;20066;-81
2022/11/05 03:35:05;;;;;;;33.25;18.08;;;;;;;6.14;100.00;100933.59;4959941;29;20117;-80
2022/11/05 03:37:36;;;;;;;31.60;17.50;;;;;;;6.06;100.00;100941.16;4960240;28;20079;-80
2022/11/05 03:40:08;;;;;;;28.95;19.33;;;;;;;5.98;100.00;100946.94;4961184;29;20130;-80
2022/11/05 03:42:38;;;;;;;29.27;18.23;;;;;;;5.93;100.00;100943.88;4963031;29;20682;-80
2022/11/05 03:45:10;;;;;;;24.63;17.13;;;;;;;5.91;100.00;100948.38;4963861;29;20098;-79
2022/11/05 03:47:40;;;;;;;23.60;17.23;;;;;;;5.89;100.00;100955.44;4943866;29;20496;-81
2022/11/05 03:50:18;;;;;;;28.40;16.48;;;;;;;5.94;100.00;100962.88;4944200;29;20083;-80
2022/11/05 03:52:48;;;;;;;28.75;17.58;;;;;;;5.79;100.00;100964.84;4943097;29;20499;-79
2022/11/05 03:55:16;;;;;;;28.52;17.17;;;;;;;5.68;100.00;100963.06;4956285;29;20118;-81
2022/11/05 03:57:49;;;;;;;25.58;17.30;;;;;;;5.70;100.00;100965.53;4970007;29;20047;-80
2022/11/05 04:00:16;;;;;;;27.35;17.45;;;;;;;5.61;100.00;100967.09;4967307;29;20477;-79
2022/11/05 04:02:42;;;;;;;28.00;18.13;;;;;;;5.54;100.00;100960.69;4959992;29;20078;-81
2022/11/05 04:05:11;;;;;;;24.60;16.58;;;;;;;5.54;100.00;100973.69;4960041;29;20051;-81
2022/11/05 04:13:24;;;;;;;26.40;16.85;;;;;;;5.50;100.00;100995.63;4963219;29;20086;-80
2022/11/05 04:18:35;;;;;;;30.35;18.67;;;;;;;5.40;100.00;100999.84;4958436;29;20148;-80
2022/11/05 04:24:08;;;;;;;34.80;18.75;;;;;;;5.35;100.00;100999.34;4959427;29;20127;-80
2022/11/05 04:26:35;;;;;;;29.15;17.55;;;;;;;5.34;100.00;101002.88;4958637;29;20070;-80
2022/11/05 04:31:46;;;;;;;32.15;19.02;;;;;;;5.34;100.00;101006.31;4958656;29;20062;-81
2022/11/05 04:34:13;;;;;;;32.75;19.65;;;;;;;5.34;100.00;101001.09;4958141;29;20403;-80
2022/11/05 04:36:41;;;;;;;34.13;18.63;;;;;;;5.35;100.00;101014.91;4958481;29;20059;-81
2022/11/05 04:39:08;;;;;;;28.13;18.92;;;;;;;5.33;100.00;101002.06;4957940;29;20370;-81
2022/11/05 04:41:34;;;;;;;29.42;20.15;;;;;;;5.33;100.00;101001.22;4957363;29;20134;-81
2022/11/05 04:44:01;;;;;;;29.95;18.70;;;;;;;5.32;100.00;101002.16;4958759;29;20090;-80
2022/11/05 04:46:27;;;;;;;34.35;20.02;;;;;;;5.32;100.00;100999.56;4958684;29;20055;-81
2022/11/05 04:48:54;;;;;;;35.90;20.40;;;;;;;5.37;100.00;101002.66;4959378;28;20486;-82
2022/11/05 04:51:21;;;;;;;32.67;20.25;;;;;;;5.46;100.00;101004.56;4961693;29;20094;-81
2022/11/05 04:53:49;;;;;;;35.53;21.33;;;;;;;5.51;100.00;100999.88;4966157;29;20066;-81
2022/11/05 04:56:20;;;;;;;38.38;21.35;;;;;;;5.51;100.00;101001.63;4968949;29;20074;-80
2022/11/05 04:58:47;;;;;;;30.52;20.13;;;;;;;5.45;100.00;101002.91;4968573;29;20079;-81
2022/11/05 05:01:15;;;;;;;31.15;21.45;;;;;;;5.41;100.00;101004.09;4963810;29;20130;-81
2022/11/05 05:03:42;;;;;;;35.03;21.33;;;;;;;5.38;100.00;101001.72;4958386;29;20079;-81
2022/11/05 05:06:10;;;;;;;33.47;22.15;;;;;;;5.44;100.00;101003.03;4958518;29;20134;-81
2022/11/05 05:08:36;;;;;;;33.20;22.17;;;;;;;5.45;100.00;101002.91;4958276;29;20134;-81
2022/11/05 05:11:06;;;;;;;42.22;24.15;;;;;;;5.42;100.00;100997.94;4958211;29;20043;-81
2022/11/05 05:13:33;;;;;;;40.45;23.88;;;;;;;5.45;100.00;101013.28;4959697;29;20548;-81
2022/11/05 05:16:04;;;;;;;42.40;24.83;;;;;;;5.41;100.00;101014.47;4960514;29;20082;-81
2022/11/05 05:18:31;;;;;;;44.45;26.02;;;;;;;5.45;100.00;101013.28;4961214;29;20079;-81
2022/11/05 05:23:41;;;;;;;39.95;23.77;;;;;;;5.31;100.00;101014.31;4959021;29;20094;-80
2022/11/05 05:26:10;;;;;;;41.67;25.08;;;;;;;5.33;100.00;101014.19;4959069;29;20083;-79
2022/11/05 05:28:36;;;;;;;39.70;24.52;;;;;;;5.21;100.00;101013.31;4958425;29;20134;-80
2022/11/05 05:31:03;;;;;;;42.55;25.65;;;;;;;5.10;100.00;101021.09;4958954;29;20478;-80
2022/11/05 05:33:29;;;;;;;40.70;24.27;;;;;;;5.14;100.00;101013.91;4959146;29;20119;-81
2022/11/05 05:35:57;;;;;;;41.00;25.30;;;;;;;5.14;100.00;101026.88;4956871;29;20195;-81
2022/11/05 05:38:24;;;;;;;40.83;25.70;;;;;;;5.07;100.00;101023.91;4954332;29;20566;-80
2022/11/05 05:40:51;;;;;;;45.63;26.75;;;;;;;5.07;100.00;101023.06;4959270;29;20047;-80
2022/11/05 05:43:19;;;;;;;44.40;27.20;;;;;;;5.06;100.00;101026.59;4959234;29;20047;-80
2022/11/05 05:45:45;;;;;;;47.72;26.98;;;;;;;5.10;100.00;101025.44;4959352;29;20121;-79
2022/11/05 05:48:12;;;;;;;49.28;27.23;;;;;;;5.10;100.00;101030.63;4957973;29;20554;-80
2022/11/05 05:50:39;;;;;;;44.05;26.15;;;;;;;5.01;100.00;101037.31;4956982;29;20051;-79
2022/11/05 05:53:05;;;;;;;48.33;27.95;;;;;;;4.96;100.00;101031.63;4957582;29;20587;-81
2022/11/05 05:55:32;;;;;;;51.95;28.88;;;;;;;4.94;100.00;101034.31;4958461;29;20045;-80
2022/11/05 05:57:59;;;;;;;50.63;28.73;;;;;;;4.96;100.00;101032.44;4959894;29;20114;-80
2022/11/05 06:00:27;;;;;;;53.50;29.50;;;;;;;4.96;100.00;101037.63;4960491;28;20090;-81
2022/11/05 06:02:55;;;;;;;47.80;28.58;;;;;;;4.97;100.00;101044.47;4964277;29;20085;-80
2022/11/05 06:05:22;;;;;;;50.63;28.85;;;;;;;4.90;100.00;101035.47;4963878;29;20062;-80
2022/11/05 06:07:55;;;;;;;52.40;29.05;;;;;;;4.89;100.00;101036.41;4962739;29;20126;-80
2022/11/05 06:10:21;;;;;;;49.47;28.13;;;;;;;4.87;100.00;101050.41;4961733;29;20048;-82
2022/11/05 06:12:48;;;;;;;57.22;28.70;;;;;;;4.84;100.00;101048.88;4961558;29;20111;-81
2022/11/05 06:15:15;;;;;;;49.78;27.48;;;;;;;4.82;100.00;101052.50;4962396;29;20142;-81
2022/11/05 06:17:44;;;;;;;47.65;27.48;;;;;;;4.87;100.00;101053.84;4964290;29;20090;-81
2022/11/05 06:20:12;;;;;;;47.60;26.00;;;;;;;4.87;100.00;101059.03;4967674;29;20082;-81
2022/11/05 06:22:38;;;;;;;49.03;27.35;;;;;;;4.85;100.00;101065.25;4963583;28;20094;-81
2022/11/05 06:25:07;;;;;;;46.00;28.08;;;;;;;4.85;100.00;101057.47;4963942;29;20051;-81
2022/11/05 06:27:34;;;;;;;45.00;27.08;;;;;;;4.84;100.00;101061.00;4967890;29;20079;-81
2022/11/05 06:30:01;;;;;;;52.38;27.10;;;;;;;4.83;100.00;101065.38;4960532;29;20058;-81
2022/11/05 06:32:29;;;;;;;47.30;27.50;;;;;;;4.84;100.00;101061.84;4959734;29;20134;-82
2022/11/05 06:34:57;;;;;;;49.65;27.30;;;;;;;4.89;100.00;101077.91;4961509;29;20498;-81
2022/11/05 06:37:24;;;;;;;51.22;28.75;;;;;;;4.92;100.00;101072.50;4961595;29;20119;-81
2022/11/05 06:39:50;;;;;;;55.17;27.83;;;;;;;4.93;100.00;101062.94;4960475;29;20376;-81
2022/11/05 06:42:17;;;;;;;45.08;26.60;;;;;;;5.04;100.00;101080.34;4961992;29;20079;-80
2022/11/05 06:44:43;;;;;;;52.72;28.42;;;;;;;5.03;100.00;101083.88;4961351;29;20133;-81
2022/11/05 06:47:11;;;;;;;52.70;28.75;;;;;;;5.02;100.00;101092.59;4960884;29;20078;-80
2022/11/05 06:49:37;;;;;;;56.50;31.77;;;;;;;5.05;100.00;101089.78;4961115;29;20156;-79
2022/11/05 06:52:05;;;;;;;60.05;31.08;;;;;;;5.12;100.00;101094.44;4961501;29;20129;-82
2022/11/05 06:54:32;;;;;;;60.67;31.05;;;;;;;5.22;100.00;101094.56;4961721;29;20082;-81
2022/11/05 06:56:58;;;;;;;52.80;28.65;;;;;;;5.23;100.00;101098.81;4962528;29;20082;-83
2022/11/05 06:59:25;;;;;;;58.88;29.02;;;;;;;5.25;100.00;101099.53;4963559;29;20079;-81
2022/11/05 07:01:51;;;;;;;52.80;26.92;;;;;;;5.30;100.00;101095.69;4960978;29;20346;-80
2022/11/05 07:04:18;;;;;;;51.15;28.08;;;;;;;5.38;100.00;101104.69;4961756;29;20142;-80
2022/11/05 07:06:45;;;;;;;51.05;27.80;;;;;;;5.41;100.00;101109.66;4960320;29;20057;-80
2022/11/05 07:09:13;;;;;;;54.85;27.65;;;;;;;5.50;100.00;101109.81;4961015;29;20054;-81
2022/11/05 07:11:39;;;;;;;58.15;32.60;;;;;;;5.52;100.00;101107.94;4960975;28;20114;-80
2022/11/05 07:14:06;;;;;;;56.78;32.08;;;;;;;5.57;100.00;101111.03;4961596;29;20584;-80
2022/11/05 07:16:33;;;;;;;66.47;38.13;;;;;;;5.65;100.00;101113.06;4959369;29;20047;-81
2022/11/05 07:18:59;;;;;;;52.88;31.50;;;;;;;5.59;100.00;101119.53;4959465;29;20514;-82
2022/11/05 07:21:26;;;;;;;48.03;28.08;;;;;;;5.89;100.00;101110.44;4960878;29;20191;-83
2022/11/05 07:23:53;;;;;;;52.50;28.17;;;;;;;6.15;100.00;101127.50;4963704;23;20055;-78
2022/11/05 07:26:21;;;;;;;46.88;26.35;;;;;;;6.36;100.00;101119.03;4948426;29;20087;-78
2022/11/05 07:28:47;;;;;;;46.25;28.17;;;;;;;6.84;100.00;101130.84;4947632;29;20058;-76
2022/11/05 07:31:14;;;;;;;38.50;24.63;;;;;;;6.89;100.00;101128.72;4943365;29;20083;-79
2022/11/05 07:33:41;;;;;;;40.50;24.10;;;;;;;7.31;100.00;101134.06;4947938;29;20052;-78
2022/11/05 07:36:08;;;;;;;45.83;25.08;;;;;;;7.79;100.00;101138.88;4942511;29;20099;-77
2022/11/05 07:38:35;;;;;;;29.92;20.58;;;;;;;7.71;100.00;101133.44;4937774;29;20115;-77
2022/11/05 07:41:02;;;;;;;28.13;18.15;;;;;;;8.34;100.00;101129.09;4935459;29;20048;-78
2022/11/05 07:43:30;;;;;;;26.42;17.60;;;;;;;8.61;100.00;101131.97;4931993;29;20048;-81
2022/11/05 07:45:56;;;;;;;26.05;17.40;;;;;;;8.72;100.00;101123.22;4936489;29;20043;-79
2022/11/05 07:48:23;;;;;;;24.83;17.23;;;;;;;8.56;99.04;101118.47;4942826;29;20058;-80
2022/11/05 07:50:51;;;;;;;26.65;16.80;;;;;;;8.96;97.51;101131.56;4940250;29;20047;-78
2022/11/05 07:53:19;;;;;;;26.05;16.50;;;;;;;9.23;96.19;101134.34;4943387;29;20051;-78
2022/11/05 07:55:46;;;;;;;24.02;16.15;;;;;;;9.18;95.07;101130.47;4942485;29;20048;-79
2022/11/05 07:58:13;;;;;;;23.83;16.42;;;;;;;9.21;94.71;101125.00;4930613;29;20056;-78
2022/11/05 08:00:41;;;;;;;23.25;15.32;;;;;;;9.64;94.13;101129.84;4931234;29;20103;-78
2022/11/05 08:03:10;;;;;;;25.45;15.45;;;;;;;9.70;93.78;101131.06;4949057;29;20051;-79
2022/11/05 08:05:39;;;;;;;21.77;15.13;;;;;;;9.63;92.58;101136.84;4948875;29;20048;-78
2022/11/05 08:08:06;;;;;;;22.10;15.60;;;;;;;9.93;92.30;101132.41;4944939;29;20052;-80
2022/11/05 08:10:34;;;;;;;23.55;15.68;;;;;;;9.87;92.06;101133.81;4942416;29;20430;-78
2022/11/05 08:13:01;;;;;;;23.20;14.25;;;;;;;9.75;91.51;101132.31;4943722;29;20052;-79
2022/11/05 08:15:27;;;;;;;20.67;14.23;;;;;;;9.65;92.32;101134.91;4945549;29;20047;-78
2022/11/05 08:17:59;;;;;;;24.92;14.52;;;;;;;8.87;93.27;101133.16;4945095;29;20047;-77
2022/11/05 08:20:26;;;;;;;21.77;14.15;;;;;;;9.06;93.92;101127.16;4936506;29;20117;-78
2022/11/05 08:22:53;;;;;;;23.65;14.70;;;;;;;8.91;94.59;101138.94;4939166;29;20051;-79
2022/11/05 08:25:19;;;;;;;25.38;14.55;;;;;;;8.58;95.60;101138.25;4932974;29;20047;-77
2022/11/05 08:27:46;;;;;;;23.40;14.52;;;;;;;8.79;96.72;101134.78;4933814;29;20134;-75
2022/11/05 08:30:13;;;;;;;25.23;15.45;;;;;;;8.72;97.42;101139.69;4931080;29;20047;-77
2022/11/05 08:32:39;;;;;;;24.27;14.55;;;;;;;8.49;97.32;101140.84;4935059;29;20414;-78
2022/11/05 08:35:10;;;;;;;26.02;14.40;;;;;;;8.61;97.98;101147.59;4934783;29;20058;-76
2022/11/05 08:37:36;;;;;;;28.63;14.68;;;;;;;8.66;98.57;101150.66;4932963;29;20061;-76
2022/11/05 08:40:04;;;;;;;22.58;14.27;;;;;;;8.58;98.65;101150.47;4934710;29;20158;-77
2022/11/05 08:42:30;;;;;;;22.77;14.10;;;;;;;8.60;98.36;101152.00;4934765;29;20051;-77
2022/11/05 08:44:57;;;;;;;24.45;12.80;;;;;;;8.66;98.79;101145.44;4937558;29;20127;-76
2022/11/05 08:47:24;;;;;;;19.35;12.35;;;;;;;8.68;98.98;101143.53;4934379;29;20059;-79
2022/11/05 08:49:50;;;;;;;21.25;11.85;;;;;;;8.68;98.42;101143.53;4933448;29;20051;-78
2022/11/05 08:52:18;;;;;;;21.02;10.20;;;;;;;8.77;98.11;101147.97;4933991;29;20122;-77
2022/11/05 08:54:45;;;;;;;23.20;11.20;;;;;;;8.92;98.00;101149.25;4936556;29;20110;-77
2022/11/05 08:57:11;;;;;;;17.20;10.07;;;;;;;8.91;96.86;101154.59;4935212;29;20052;-77
2022/11/05 08:59:38;;;;;;;20.98;10.50;;;;;;;8.95;96.31;101159.44;4944496;29;20075;-79
2022/11/05 09:02:05;;;;;;;20.33;10.00;;;;;;;8.89;96.06;101152.13;4939415;29;20048;-79
2022/11/05 09:04:37;;;;;;;22.05;11.05;;;;;;;8.94;96.38;101162.19;4939522;29;20444;-80
2022/11/05 09:07:03;;;;;;;19.80;10.90;;;;;;;9.07;95.95;101159.31;4939807;29;20062;-79
2022/11/05 09:09:32;;;;;;;21.80;10.40;;;;;;;9.12;95.93;101157.94;4939387;29;20048;-79
2022/11/05 09:11:58;;;;;;;19.38;9.57;;;;;;;8.94;95.41;101160.38;4938210;29;20055;-79
2022/11/05 09:14:27;;;;;;;17.58;11.23;;;;;;;9.01;95.59;101154.63;4935789;29;20158;-79
2022/11/05 09:16:54;;;;;;;20.17;10.18;;;;;;;9.03;94.94;101158.75;4938597;29;20054;-78
2022/11/05 09:19:20;;;;;;;15.32;9.43;;;;;;;9.01;95.50;101150.22;4935822;29;20135;-79
2022/11/05 09:21:47;;;;;;;16.17;9.52;;;;;;;9.13;95.47;101153.56;4937519;29;20138;-79
2022/11/05 09:24:13;;;;;;;19.55;10.02;;;;;;;9.11;95.36;101163.31;4947958;28;20137;-80
2022/11/05 09:26:41;;;;;;;13.05;8.95;;;;;;;9.15;95.41;101156.84;4948929;29;20047;-79
2022/11/05 09:29:08;;;;;;;17.83;9.30;;;;;;;9.16;94.41;101153.28;4945954;29;20082;-79
2022/11/05 09:31:38;;;;;;;17.98;8.85;;;;;;;9.22;94.85;101160.59;4944886;29;20503;-80
2022/11/05 09:34:04;;;;;;;16.00;9.27;;;;;;;9.22;94.45;101157.97;4945457;29;20051;-78
2022/11/05 09:36:31;;;;;;;13.82;8.63;;;;;;;9.26;94.01;101154.97;4943030;29;20051;-80
2022/11/05 09:38:57;;;;;;;14.95;8.55;;;;;;;9.30;93.58;101150.31;4951629;29;20070;-78
2022/11/05 09:41:30;;;;;;;15.48;8.88;;;;;;;9.35;93.85;101162.97;4932140;29;20087;-77
2022/11/05 09:44:02;;;;;;;16.73;9.30;;;;;;;9.41;93.66;101162.41;4938513;29;20119;-79
2022/11/05 09:46:33;;;;;;;15.60;9.10;;;;;;;9.41;93.41;101157.19;4936386;29;20047;-79
2022/11/05 09:49:07;;;;;;;17.90;9.02;;;;;;;9.53;92.68;101166.53;4936360;29;20545;-79
2022/11/05 09:51:35;;;;;;;20.73;8.38;;;;;;;9.59;92.72;101172.03;4936002;29;20115;-79
2022/11/05 09:54:02;;;;;;;12.75;8.63;;;;;;;9.65;92.85;101158.44;4947922;28;20418;-80
2022/11/05 09:56:31;;;;;;;17.63;7.93;;;;;;;9.65;92.11;101171.50;4942604;29;20139;-80
2022/11/05 09:59:03;;;;;;;16.17;8.38;;;;;;;9.74;91.22;101161.19;4952336;29;20090;-81
2022/11/05 10:01:33;;;;;;;16.08;9.10;;;;;;;9.79;92.08;101172.06;4965265;29;20054;-79
2022/11/05 10:04:02;;;;;;;13.32;8.43;;;;;;;9.80;91.50;101164.09;4966463;28;20557;-80
2022/11/05 10:06:29;;;;;;;14.85;7.25;;;;;;;9.90;90.89;101161.47;4963966;29;20075;-80
2022/11/05 10:09:03;;;;;;;11.43;7.13;;;;;;;9.95;90.14;101164.47;4947880;29;20107;-82
2022/11/05 10:11:37;;;;;;;10.23;6.70;;;;;;;10.07;90.07;101165.97;4948016;29;20058;-79
2022/11/05 10:14:14;;;;;;;14.20;7.65;;;;;;;10.06;89.11;101166.94;4945256;28;20198;-80
2022/11/05 10:16:44;;;;;;;15.10;7.28;;;;;;;10.16;88.70;101165.16;4965334;29;20051;-78
2022/11/05 10:19:20;;;;;;;13.73;6.85;;;;;;;10.20;88.48;101168.34;4933331;29;20115;-81
2022/11/05 10:21:47;;;;;;;12.98;6.90;;;;;;;10.23;88.77;101176.72;4962785;29;20058;-80
2022/11/05 10:24:16;;;;;;;16.60;8.05;;;;;;;10.23;87.87;101171.50;4964910;28;20062;-80
2022/11/05 10:26:45;;;;;;;12.20;5.95;;;;;;;10.25;87.29;101158.28;4951631;29;20105;-80
2022/11/05 10:29:21;;;;;;;10.48;6.05;;;;;;;10.35;87.11;101173.97;4945810;29;20090;-83
2022/11/05 10:31:48;;;;;;;13.13;6.22;;;;;;;10.37;86.81;101172.03;4940346;29;20443;-82
2022/11/05 10:34:16;;;;;;;10.02;5.70;;;;;;;10.41;86.38;101173.38;4945346;29;20055;-80
2022/11/05 10:36:43;;;;;;;11.73;5.88;;;;;;;10.46;85.65;101171.16;4946406;29;20462;-81
2022/11/05 10:39:13;;;;;;;14.00;6.35;;;;;;;10.56;86.04;101171.97;4947647;29;20170;-82
2022/11/05 10:41:58;;;;;;;17.20;7.13;;;;;;;10.78;85.80;101176.84;4947620;29;20052;-83
2022/11/05 10:44:34;;;;;;;8.18;5.55;;;;;;;11.00;84.95;101182.66;4946442;29;20052;-80
2022/11/05 10:47:23;;;;;;;10.15;5.95;;;;;;;11.09;83.56;101184.41;4943211;29;20043;-80
2022/11/05 10:49:58;;;;;;;10.45;5.38;;;;;;;11.14;83.41;101179.56;4947528;29;20051;-82
2022/11/05 10:52:27;;;;;;;8.65;5.57;;;;;;;11.18;83.01;101178.31;4946913;29;20048;-81
2022/11/05 10:54:58;;;;;;;9.38;5.70;;;;;;;11.25;83.54;101184.63;4948169;29;20431;-82
2022/11/05 10:57:34;;;;;;;11.57;5.97;;;;;;;11.31;83.27;101176.16;4949048;29;20056;-82
2022/11/05 11:00:30;;;;;;;12.02;6.15;;;;;;;11.41;83.26;101182.16;4948016;29;20054;-82
2022/11/05 11:02:59;;;;;;;13.43;6.18;;;;;;;11.46;83.04;101184.31;4927987;29;20483;-81
2022/11/05 11:05:28;;;;;;;11.32;5.80;;;;;;;11.56;82.28;101199.03;4933918;29;20110;-81
2022/11/05 11:08:20;;;;;;;9.80;5.72;;;;;;;11.62;81.28;101198.44;4946795;29;20048;-81
2022/11/05 11:10:50;;;;;;;9.40;5.32;;;;;;;11.79;82.22;101193.38;4946379;29;20059;-80
2022/11/05 11:13:22;;;;;;;14.13;5.70;;;;;;;11.82;80.55;101198.28;4946407;29;20422;-80
2022/11/05 11:15:50;;;;;;;8.20;5.47;;;;;;;11.91;80.86;101194.78;4945485;29;20059;-80
2022/11/05 11:18:28;;;;;;;9.35;5.43;;;;;;;11.82;79.57;101183.38;4942891;29;20157;-79
2022/11/05 11:21:05;;;;;;;9.98;5.18;;;;;;;11.90;80.48;101177.41;4944123;29;20150;-81
2022/11/05 11:23:37;;;;;;;8.88;4.90;;;;;;;12.04;79.66;101182.09;4947149;29;20170;-79
2022/11/05 11:26:04;;;;;;;10.77;5.45;;;;;;;12.09;79.33;101179.84;4949717;29;20066;-81
2022/11/05 11:28:34;;;;;;;9.45;4.97;;;;;;;11.99;78.80;101180.91;4948439;29;20094;-80
2022/11/05 11:31:06;;;;;;;10.82;5.28;;;;;;;11.93;79.80;101180.53;4944387;29;20044;-79
2022/11/05 11:33:37;;;;;;;18.02;5.55;;;;;;;11.92;79.48;101183.31;4944963;29;20111;-81
2022/11/05 11:36:05;;;;;;;14.90;5.05;;;;;;;12.09;79.25;101179.84;4946133;29;20583;-80
2022/11/05 11:38:35;;;;;;;11.55;5.18;;;;;;;12.41;78.78;101173.16;4946340;29;20070;-81
2022/11/05 11:41:08;;;;;;;9.88;5.35;;;;;;;12.32;78.34;101179.34;4948178;29;20107;-82
2022/11/05 11:43:39;;;;;;;10.25;5.40;;;;;;;12.44;78.29;101176.31;4947956;29;20055;-80
2022/11/05 11:46:14;;;;;;;11.73;5.20;;;;;;;12.44;78.53;101183.38;4944066;29;20242;-79
2022/11/05 11:48:42;;;;;;;9.00;4.70;;;;;;;12.41;78.48;101178.41;4953693;29;20059;-81
2022/11/05 11:51:20;;;;;;;9.82;4.40;;;;;;;12.30;78.20;101182.94;4956022;29;20537;-81
2022/11/05 11:53:49;;;;;;;10.73;4.97;;;;;;;12.30;78.11;101182.94;4957463;29;20046;-80
2022/11/05 11:56:18;;;;;;;9.02;5.00;;;;;;;12.16;77.43;101186.13;4956443;29;20059;-85
2022/11/05 11:58:50;;;;;;;6.80;4.35;;;;;;;12.05;78.22;101173.25;4956004;29;20071;-83
2022/11/05 12:01:50;;;;;;;9.20;4.40;;;;;;;11.91;78.79;101176.41;4956526;29;20051;-82
2022/11/05 12:04:51;;;;;;;10.30;4.20;;;;;;;11.86;77.40;101168.19;4955423;29;20032;-81
2022/11/05 12:07:28;;;;;;;9.35;4.72;;;;;;;11.74;77.66;101156.28;4928546;29;20066;-80